Terminal Aerodrome Forecast
Issued by NWS

Home | Current Version | Previous Version | Graphics & Text | Print | Product List | Glossary On
Versions: 1 2 3 4 5 6 7 8 9 10 11 12 13 14 15 16 17 18
000
FTUS45 KGGW 231700
TAFSDY
TAF
KSDY 231726Z 2318/2418 30025G30KT 5SM -SN BKN017
      TEMPO 2318/2319 1SM -SN
     FM231900 31020G25KT P6SM OVC025
     FM240000 32015KT P6SM BKN030
     FM240600 32006KT P6SM SCT030
     FM241500 33005KT P6SM FEW020 BKN150
      AMD LTD TO CLD VIS AND WIND=

USA.gov is the U.S. government's official web portal to all federal, state and local government web resources and services.